sensor_id;sensor_type;location;lat;lon;timestamp;P1;durP1;ratioP1;P2;durP2;ratioP2
27558;SDS011;15002;52.028;5.670;2023-04-10T00:00:05;20.33;;;13.90;;
27558;SDS011;15002;52.028;5.670;2023-04-10T00:02:32;18.60;;;12.57;;
27558;SDS011;15002;52.028;5.670;2023-04-10T00:04:58;19.25;;;12.60;;
27558;SDS011;15002;52.028;5.670;2023-04-10T00:07:24;20.95;;;12.68;;
27558;SDS011;15002;52.028;5.670;2023-04-10T00:09:50;19.17;;;12.43;;
27558;SDS011;15002;52.028;5.670;2023-04-10T00:12:16;17.02;;;11.75;;
27558;SDS011;15002;52.028;5.670;2023-04-10T00:14:42;17.77;;;11.70;;
27558;SDS011;15002;52.028;5.670;2023-04-10T00:17:07;15.38;;;11.07;;
27558;SDS011;15002;52.028;5.670;2023-04-10T00:19:33;15.90;;;11.10;;
27558;SDS011;15002;52.028;5.670;2023-04-10T00:21:59;16.45;;;11.63;;
27558;SDS011;15002;52.028;5.670;2023-04-10T00:24:25;15.95;;;10.93;;
27558;SDS011;15002;52.028;5.670;2023-04-10T00:26:50;17.80;;;10.77;;
27558;SDS011;15002;52.028;5.670;2023-04-10T00:29:16;14.27;;;10.05;;
27558;SDS011;15002;52.028;5.670;2023-04-10T00:31:42;15.45;;;9.77;;
27558;SDS011;15002;52.028;5.670;2023-04-10T00:34:07;15.93;;;10.43;;
27558;SDS011;15002;52.028;5.670;2023-04-10T00:36:33;14.00;;;9.65;;
27558;SDS011;15002;52.028;5.670;2023-04-10T00:38:59;14.07;;;9.52;;
27558;SDS011;15002;52.028;5.670;2023-04-10T00:41:25;13.68;;;9.55;;
27558;SDS011;15002;52.028;5.670;2023-04-10T00:43:55;12.73;;;8.55;;
27558;SDS011;15002;52.028;5.670;2023-04-10T00:46:21;14.75;;;9.18;;
27558;SDS011;15002;52.028;5.670;2023-04-10T00:48:47;15.50;;;9.10;;
27558;SDS011;15002;52.028;5.670;2023-04-10T00:51:14;14.35;;;9.05;;
27558;SDS011;15002;52.028;5.670;2023-04-10T00:53:40;13.52;;;9.13;;
27558;SDS011;15002;52.028;5.670;2023-04-10T00:56:05;12.70;;;9.07;;
27558;SDS011;15002;52.028;5.670;2023-04-10T00:58:32;15.10;;;9.15;;
27558;SDS011;15002;52.028;5.670;2023-04-10T01:00:57;13.00;;;9.43;;
27558;SDS011;15002;52.028;5.670;2023-04-10T01:03:23;14.20;;;8.82;;
27558;SDS011;15002;52.028;5.670;2023-04-10T01:11:06;13.57;;;8.65;;
27558;SDS011;15002;52.028;5.670;2023-04-10T01:13:49;12.23;;;8.18;;
27558;SDS011;15002;52.028;5.670;2023-04-10T01:16:30;12.90;;;8.35;;
27558;SDS011;15002;52.028;5.670;2023-04-10T01:19:08;12.80;;;8.75;;
27558;SDS011;15002;52.028;5.670;2023-04-10T01:21:46;13.60;;;8.25;;
27558;SDS011;15002;52.028;5.670;2023-04-10T01:29:23;12.23;;;7.95;;
27558;SDS011;15002;52.028;5.670;2023-04-10T01:34:41;12.60;;;7.57;;
27558;SDS011;15002;52.028;5.670;2023-04-10T01:37:16;10.93;;;7.57;;
27558;SDS011;15002;52.028;5.670;2023-04-10T01:39:56;11.93;;;8.32;;
27558;SDS011;15002;52.028;5.670;2023-04-10T01:42:25;11.20;;;7.93;;
27558;SDS011;15002;52.028;5.670;2023-04-10T01:44:56;11.77;;;8.32;;
27558;SDS011;15002;52.028;5.670;2023-04-10T01:47:23;14.48;;;8.35;;
27558;SDS011;15002;52.028;5.670;2023-04-10T01:49:50;11.35;;;7.80;;
27558;SDS011;15002;52.028;5.670;2023-04-10T01:52:18;12.90;;;7.70;;
27558;SDS011;15002;52.028;5.670;2023-04-10T01:54:46;10.93;;;8.02;;
27558;SDS011;15002;52.028;5.670;2023-04-10T01:57:13;12.73;;;8.20;;
27558;SDS011;15002;52.028;5.670;2023-04-10T01:59:40;13.13;;;8.18;;
27558;SDS011;15002;52.028;5.670;2023-04-10T02:02:06;12.05;;;8.23;;
27558;SDS011;15002;52.028;5.670;2023-04-10T02:04:35;13.45;;;8.13;;
27558;SDS011;15002;52.028;5.670;2023-04-10T02:07:21;11.73;;;7.50;;
27558;SDS011;15002;52.028;5.670;2023-04-10T02:09:57;11.40;;;7.78;;
27558;SDS011;15002;52.028;5.670;2023-04-10T02:12:29;12.65;;;8.10;;
27558;SDS011;15002;52.028;5.670;2023-04-10T02:15:01;14.15;;;8.95;;
27558;SDS011;15002;52.028;5.670;2023-04-10T02:17:30;14.00;;;8.55;;
27558;SDS011;15002;52.028;5.670;2023-04-10T02:19:58;12.93;;;8.43;;
27558;SDS011;15002;52.028;5.670;2023-04-10T02:22:25;11.05;;;7.63;;
27558;SDS011;15002;52.028;5.670;2023-04-10T02:24:52;11.50;;;7.47;;
27558;SDS011;15002;52.028;5.670;2023-04-10T02:27:28;11.68;;;8.07;;
27558;SDS011;15002;52.028;5.670;2023-04-10T02:29:55;11.50;;;8.10;;
27558;SDS011;15002;52.028;5.670;2023-04-10T02:32:21;11.90;;;7.90;;
27558;SDS011;15002;52.028;5.670;2023-04-10T02:34:47;11.82;;;8.00;;
27558;SDS011;15002;52.028;5.670;2023-04-10T02:37:12;11.10;;;8.07;;
27558;SDS011;15002;52.028;5.670;2023-04-10T02:39:38;13.18;;;8.20;;
27558;SDS011;15002;52.028;5.670;2023-04-10T02:42:04;13.05;;;8.88;;
27558;SDS011;15002;52.028;5.670;2023-04-10T02:44:29;13.57;;;8.98;;
27558;SDS011;15002;52.028;5.670;2023-04-10T02:46:55;11.70;;;8.30;;
27558;SDS011;15002;52.028;5.670;2023-04-10T02:49:21;12.43;;;8.18;;
27558;SDS011;15002;52.028;5.670;2023-04-10T02:51:46;12.27;;;8.18;;
27558;SDS011;15002;52.028;5.670;2023-04-10T02:54:12;10.77;;;8.00;;
27558;SDS011;15002;52.028;5.670;2023-04-10T02:56:37;12.07;;;8.23;;
27558;SDS011;15002;52.028;5.670;2023-04-10T02:59:03;11.75;;;8.38;;
27558;SDS011;15002;52.028;5.670;2023-04-10T03:01:29;12.63;;;8.50;;
27558;SDS011;15002;52.028;5.670;2023-04-10T03:03:55;12.32;;;8.63;;
27558;SDS011;15002;52.028;5.670;2023-04-10T03:06:21;13.30;;;8.32;;
27558;SDS011;15002;52.028;5.670;2023-04-10T03:08:50;11.15;;;8.20;;
27558;SDS011;15002;52.028;5.670;2023-04-10T03:11:15;13.10;;;8.60;;
27558;SDS011;15002;52.028;5.670;2023-04-10T03:13:41;12.05;;;8.32;;
27558;SDS011;15002;52.028;5.670;2023-04-10T03:16:06;14.13;;;8.57;;
27558;SDS011;15002;52.028;5.670;2023-04-10T03:18:32;11.85;;;7.68;;
27558;SDS011;15002;52.028;5.670;2023-04-10T03:20:58;14.27;;;9.10;;
27558;SDS011;15002;52.028;5.670;2023-04-10T03:23:26;11.00;;;8.02;;
27558;SDS011;15002;52.028;5.670;2023-04-10T03:25:51;12.43;;;8.55;;
27558;SDS011;15002;52.028;5.670;2023-04-10T03:28:18;13.23;;;8.68;;
27558;SDS011;15002;52.028;5.670;2023-04-10T03:30:47;13.90;;;8.75;;
27558;SDS011;15002;52.028;5.670;2023-04-10T03:33:14;13.02;;;7.80;;
27558;SDS011;15002;52.028;5.670;2023-04-10T03:35:40;12.95;;;8.48;;
27558;SDS011;15002;52.028;5.670;2023-04-10T03:38:06;12.23;;;8.18;;
27558;SDS011;15002;52.028;5.670;2023-04-10T03:40:32;12.50;;;8.68;;
27558;SDS011;15002;52.028;5.670;2023-04-10T03:42:58;11.52;;;8.23;;
27558;SDS011;15002;52.028;5.670;2023-04-10T03:45:24;13.23;;;7.63;;
27558;SDS011;15002;52.028;5.670;2023-04-10T03:47:53;13.80;;;7.93;;
27558;SDS011;15002;52.028;5.670;2023-04-10T03:50:18;13.38;;;7.90;;
27558;SDS011;15002;52.028;5.670;2023-04-10T03:52:44;12.90;;;7.95;;
27558;SDS011;15002;52.028;5.670;2023-04-10T03:55:10;13.48;;;8.43;;
27558;SDS011;15002;52.028;5.670;2023-04-10T03:57:36;12.55;;;8.73;;
27558;SDS011;15002;52.028;5.670;2023-04-10T04:00:02;12.52;;;8.27;;
27558;SDS011;15002;52.028;5.670;2023-04-10T04:02:29;11.38;;;8.02;;
27558;SDS011;15002;52.028;5.670;2023-04-10T04:04:55;12.63;;;8.45;;
27558;SDS011;15002;52.028;5.670;2023-04-10T04:07:21;12.45;;;8.65;;
27558;SDS011;15002;52.028;5.670;2023-04-10T04:09:46;14.68;;;8.57;;
27558;SDS011;15002;52.028;5.670;2023-04-10T04:12:12;14.85;;;9.15;;
27558;SDS011;15002;52.028;5.670;2023-04-10T04:14:38;11.13;;;8.35;;
27558;SDS011;15002;52.028;5.670;2023-04-10T04:17:03;11.70;;;8.38;;
27558;SDS011;15002;52.028;5.670;2023-04-10T04:19:29;14.43;;;8.73;;
27558;SDS011;15002;52.028;5.670;2023-04-10T04:21:55;12.32;;;8.20;;
27558;SDS011;15002;52.028;5.670;2023-04-10T04:24:21;11.18;;;7.90;;
27558;SDS011;15002;52.028;5.670;2023-04-10T04:26:47;12.48;;;8.13;;
27558;SDS011;15002;52.028;5.670;2023-04-10T04:29:12;12.65;;;7.75;;
27558;SDS011;15002;52.028;5.670;2023-04-10T04:31:38;14.00;;;8.07;;
27558;SDS011;15002;52.028;5.670;2023-04-10T04:34:04;14.10;;;8.48;;
27558;SDS011;15002;52.028;5.670;2023-04-10T04:36:29;12.63;;;8.65;;
27558;SDS011;15002;52.028;5.670;2023-04-10T04:38:55;11.85;;;7.95;;
27558;SDS011;15002;52.028;5.670;2023-04-10T04:41:21;10.93;;;7.63;;
27558;SDS011;15002;52.028;5.670;2023-04-10T04:43:46;12.10;;;7.85;;
27558;SDS011;15002;52.028;5.670;2023-04-10T04:46:13;10.80;;;7.53;;
27558;SDS011;15002;52.028;5.670;2023-04-10T04:48:38;12.60;;;7.85;;
27558;SDS011;15002;52.028;5.670;2023-04-10T04:51:06;12.00;;;8.40;;
27558;SDS011;15002;52.028;5.670;2023-04-10T04:53:31;13.48;;;8.52;;
27558;SDS011;15002;52.028;5.670;2023-04-10T04:55:57;12.65;;;8.85;;
27558;SDS011;15002;52.028;5.670;2023-04-10T04:58:23;12.52;;;8.35;;
27558;SDS011;15002;52.028;5.670;2023-04-10T05:00:50;11.20;;;8.25;;
27558;SDS011;15002;52.028;5.670;2023-04-10T05:03:16;11.95;;;8.13;;
27558;SDS011;15002;52.028;5.670;2023-04-10T05:05:42;13.52;;;8.02;;
27558;SDS011;15002;52.028;5.670;2023-04-10T05:08:07;11.38;;;7.35;;
27558;SDS011;15002;52.028;5.670;2023-04-10T05:10:33;12.38;;;8.35;;
27558;SDS011;15002;52.028;5.670;2023-04-10T05:12:59;10.65;;;7.25;;
27558;SDS011;15002;52.028;5.670;2023-04-10T05:15:25;12.50;;;8.18;;
27558;SDS011;15002;52.028;5.670;2023-04-10T05:17:50;12.13;;;7.88;;
27558;SDS011;15002;52.028;5.670;2023-04-10T05:20:17;12.85;;;7.70;;
27558;SDS011;15002;52.028;5.670;2023-04-10T05:22:43;14.77;;;8.70;;
27558;SDS011;15002;52.028;5.670;2023-04-10T05:25:08;12.13;;;7.82;;
27558;SDS011;15002;52.028;5.670;2023-04-10T05:27:34;12.32;;;8.15;;
27558;SDS011;15002;52.028;5.670;2023-04-10T05:30:00;12.02;;;7.68;;
27558;SDS011;15002;52.028;5.670;2023-04-10T05:32:26;12.93;;;7.80;;
27558;SDS011;15002;52.028;5.670;2023-04-10T05:34:51;12.05;;;6.97;;
27558;SDS011;15002;52.028;5.670;2023-04-10T05:37:17;13.32;;;8.15;;
27558;SDS011;15002;52.028;5.670;2023-04-10T05:39:43;11.93;;;8.23;;
27558;SDS011;15002;52.028;5.670;2023-04-10T05:42:08;13.48;;;8.23;;
27558;SDS011;15002;52.028;5.670;2023-04-10T05:44:34;13.13;;;8.20;;
27558;SDS011;15002;52.028;5.670;2023-04-10T05:46:59;13.10;;;8.88;;
27558;SDS011;15002;52.028;5.670;2023-04-10T05:49:25;12.30;;;7.93;;
27558;SDS011;15002;52.028;5.670;2023-04-10T05:51:51;12.05;;;7.90;;
27558;SDS011;15002;52.028;5.670;2023-04-10T05:54:17;11.98;;;7.53;;
27558;SDS011;15002;52.028;5.670;2023-04-10T05:56:43;11.65;;;7.57;;
27558;SDS011;15002;52.028;5.670;2023-04-10T05:59:08;11.45;;;7.97;;
27558;SDS011;15002;52.028;5.670;2023-04-10T06:01:34;14.02;;;7.57;;
27558;SDS011;15002;52.028;5.670;2023-04-10T06:04:00;12.45;;;8.07;;
27558;SDS011;15002;52.028;5.670;2023-04-10T06:06:26;11.95;;;7.40;;
27558;SDS011;15002;52.028;5.670;2023-04-10T06:08:53;13.30;;;7.78;;
27558;SDS011;15002;52.028;5.670;2023-04-10T06:11:19;13.57;;;8.00;;
27558;SDS011;15002;52.028;5.670;2023-04-10T06:13:45;12.98;;;8.30;;
27558;SDS011;15002;52.028;5.670;2023-04-10T06:16:11;10.70;;;7.15;;
27558;SDS011;15002;52.028;5.670;2023-04-10T06:18:39;10.88;;;7.15;;
27558;SDS011;15002;52.028;5.670;2023-04-10T06:21:05;11.75;;;8.18;;
27558;SDS011;15002;52.028;5.670;2023-04-10T06:23:31;11.57;;;7.55;;
27558;SDS011;15002;52.028;5.670;2023-04-10T06:25:56;10.50;;;7.53;;
27558;SDS011;15002;52.028;5.670;2023-04-10T06:28:22;10.40;;;6.78;;
27558;SDS011;15002;52.028;5.670;2023-04-10T06:30:48;13.23;;;7.97;;
27558;SDS011;15002;52.028;5.670;2023-04-10T06:33:14;10.57;;;7.30;;
27558;SDS011;15002;52.028;5.670;2023-04-10T06:35:40;11.27;;;7.82;;
27558;SDS011;15002;52.028;5.670;2023-04-10T06:38:06;11.98;;;7.70;;
27558;SDS011;15002;52.028;5.670;2023-04-10T06:40:32;13.18;;;7.38;;
27558;SDS011;15002;52.028;5.670;2023-04-10T06:43:01;9.85;;;6.68;;
27558;SDS011;15002;52.028;5.670;2023-04-10T06:45:26;11.05;;;7.25;;
27558;SDS011;15002;52.028;5.670;2023-04-10T06:47:52;11.13;;;7.40;;
27558;SDS011;15002;52.028;5.670;2023-04-10T06:50:18;12.35;;;7.88;;
27558;SDS011;15002;52.028;5.670;2023-04-10T06:52:44;11.93;;;7.65;;
27558;SDS011;15002;52.028;5.670;2023-04-10T06:55:10;10.38;;;7.53;;
27558;SDS011;15002;52.028;5.670;2023-04-10T06:57:37;11.55;;;7.63;;
27558;SDS011;15002;52.028;5.670;2023-04-10T07:00:03;11.30;;;7.88;;
27558;SDS011;15002;52.028;5.670;2023-04-10T07:02:30;12.45;;;8.32;;
27558;SDS011;15002;52.028;5.670;2023-04-10T07:04:55;11.40;;;7.68;;
27558;SDS011;15002;52.028;5.670;2023-04-10T07:07:21;10.82;;;7.85;;
27558;SDS011;15002;52.028;5.670;2023-04-10T07:09:47;10.75;;;7.53;;
27558;SDS011;15002;52.028;5.670;2023-04-10T07:12:12;10.65;;;7.32;;
27558;SDS011;15002;52.028;5.670;2023-04-10T07:14:38;12.05;;;8.10;;
27558;SDS011;15002;52.028;5.670;2023-04-10T07:17:04;12.73;;;8.27;;
27558;SDS011;15002;52.028;5.670;2023-04-10T07:19:29;10.45;;;7.55;;
27558;SDS011;15002;52.028;5.670;2023-04-10T07:21:55;12.27;;;7.47;;
27558;SDS011;15002;52.028;5.670;2023-04-10T07:24:21;10.50;;;7.45;;
27558;SDS011;15002;52.028;5.670;2023-04-10T07:26:59;12.15;;;7.85;;
27558;SDS011;15002;52.028;5.670;2023-04-10T07:29:25;9.73;;;7.57;;
27558;SDS011;15002;52.028;5.670;2023-04-10T07:31:51;10.10;;;7.65;;
27558;SDS011;15002;52.028;5.670;2023-04-10T07:34:17;11.60;;;7.50;;
27558;SDS011;15002;52.028;5.670;2023-04-10T07:36:42;10.93;;;7.60;;
27558;SDS011;15002;52.028;5.670;2023-04-10T07:39:08;9.60;;;7.53;;
27558;SDS011;15002;52.028;5.670;2023-04-10T07:41:34;11.10;;;7.38;;
27558;SDS011;15002;52.028;5.670;2023-04-10T07:44:00;12.20;;;7.45;;
27558;SDS011;15002;52.028;5.670;2023-04-10T07:46:25;10.65;;;7.55;;
27558;SDS011;15002;52.028;5.670;2023-04-10T07:48:51;10.60;;;7.82;;
27558;SDS011;15002;52.028;5.670;2023-04-10T07:51:19;10.82;;;8.30;;
27558;SDS011;15002;52.028;5.670;2023-04-10T07:53:45;10.13;;;7.15;;
27558;SDS011;15002;52.028;5.670;2023-04-10T07:56:14;10.73;;;7.63;;
27558;SDS011;15002;52.028;5.670;2023-04-10T07:58:43;12.25;;;8.05;;
27558;SDS011;15002;52.028;5.670;2023-04-10T08:01:09;11.55;;;8.02;;
27558;SDS011;15002;52.028;5.670;2023-04-10T08:03:41;10.10;;;7.72;;
27558;SDS011;15002;52.028;5.670;2023-04-10T08:06:09;10.70;;;7.53;;
27558;SDS011;15002;52.028;5.670;2023-04-10T08:08:35;10.82;;;8.13;;
27558;SDS011;15002;52.028;5.670;2023-04-10T08:11:06;11.30;;;7.55;;
27558;SDS011;15002;52.028;5.670;2023-04-10T08:13:45;11.27;;;8.45;;
27558;SDS011;15002;52.028;5.670;2023-04-10T08:16:10;10.32;;;7.70;;
27558;SDS011;15002;52.028;5.670;2023-04-10T08:18:36;11.38;;;7.88;;
27558;SDS011;15002;52.028;5.670;2023-04-10T08:21:02;9.00;;;7.15;;
27558;SDS011;15002;52.028;5.670;2023-04-10T08:23:27;10.82;;;8.13;;
27558;SDS011;15002;52.028;5.670;2023-04-10T08:25:53;9.82;;;7.60;;
27558;SDS011;15002;52.028;5.670;2023-04-10T08:28:19;9.70;;;7.55;;
27558;SDS011;15002;52.028;5.670;2023-04-10T08:30:45;10.73;;;7.53;;
27558;SDS011;15002;52.028;5.670;2023-04-10T08:33:11;10.48;;;8.30;;
27558;SDS011;15002;52.028;5.670;2023-04-10T08:35:36;10.43;;;8.25;;
27558;SDS011;15002;52.028;5.670;2023-04-10T08:38:02;10.68;;;8.13;;
27558;SDS011;15002;52.028;5.670;2023-04-10T08:40:28;10.05;;;7.97;;
27558;SDS011;15002;52.028;5.670;2023-04-10T08:42:53;11.65;;;8.25;;
27558;SDS011;15002;52.028;5.670;2023-04-10T08:45:19;10.48;;;8.20;;
27558;SDS011;15002;52.028;5.670;2023-04-10T08:47:45;14.07;;;8.63;;
27558;SDS011;15002;52.028;5.670;2023-04-10T08:50:15;10.63;;;8.18;;
27558;SDS011;15002;52.028;5.670;2023-04-10T08:52:42;9.00;;;7.72;;
27558;SDS011;15002;52.028;5.670;2023-04-10T08:55:10;10.30;;;8.10;;
27558;SDS011;15002;52.028;5.670;2023-04-10T08:57:37;12.07;;;8.60;;
27558;SDS011;15002;52.028;5.670;2023-04-10T09:00:04;12.98;;;8.85;;
27558;SDS011;15002;52.028;5.670;2023-04-10T09:02:31;10.23;;;8.07;;
27558;SDS011;15002;52.028;5.670;2023-04-10T09:04:56;11.52;;;8.20;;
27558;SDS011;15002;52.028;5.670;2023-04-10T09:07:25;10.98;;;8.35;;
27558;SDS011;15002;52.028;5.670;2023-04-10T09:09:51;11.23;;;8.13;;
27558;SDS011;15002;52.028;5.670;2023-04-10T09:12:17;13.35;;;8.95;;
27558;SDS011;15002;52.028;5.670;2023-04-10T09:14:42;11.15;;;8.13;;
27558;SDS011;15002;52.028;5.670;2023-04-10T09:19:44;10.38;;;8.25;;
27558;SDS011;15002;52.028;5.670;2023-04-10T09:22:11;10.73;;;7.55;;
27558;SDS011;15002;52.028;5.670;2023-04-10T09:24:37;13.88;;;8.68;;
27558;SDS011;15002;52.028;5.670;2023-04-10T09:27:05;10.27;;;8.30;;
27558;SDS011;15002;52.028;5.670;2023-04-10T09:29:45;10.75;;;8.23;;
27558;SDS011;15002;52.028;5.670;2023-04-10T09:32:34;9.30;;;7.68;;
27558;SDS011;15002;52.028;5.670;2023-04-10T09:35:00;13.48;;;8.57;;
27558;SDS011;15002;52.028;5.670;2023-04-10T09:37:32;11.48;;;8.38;;
27558;SDS011;15002;52.028;5.670;2023-04-10T09:39:59;13.25;;;8.48;;
27558;SDS011;15002;52.028;5.670;2023-04-10T09:42:29;13.80;;;8.82;;
27558;SDS011;15002;52.028;5.670;2023-04-10T09:47:22;13.35;;;8.07;;
27558;SDS011;15002;52.028;5.670;2023-04-10T09:49:49;15.05;;;8.77;;
27558;SDS011;15002;52.028;5.670;2023-04-10T09:52:29;11.70;;;8.52;;
27558;SDS011;15002;52.028;5.670;2023-04-10T09:55:00;11.02;;;7.75;;
27558;SDS011;15002;52.028;5.670;2023-04-10T09:57:30;11.50;;;8.13;;
27558;SDS011;15002;52.028;5.670;2023-04-10T10:00:00;10.02;;;8.05;;
27558;SDS011;15002;52.028;5.670;2023-04-10T10:02:28;12.55;;;8.13;;
27558;SDS011;15002;52.028;5.670;2023-04-10T10:04:55;12.88;;;8.05;;
27558;SDS011;15002;52.028;5.670;2023-04-10T10:07:24;11.50;;;7.55;;
27558;SDS011;15002;52.028;5.670;2023-04-10T10:09:50;11.02;;;7.68;;
27558;SDS011;15002;52.028;5.670;2023-04-10T10:12:23;9.13;;;6.93;;
27558;SDS011;15002;52.028;5.670;2023-04-10T10:15:00;11.02;;;7.65;;
27558;SDS011;15002;52.028;5.670;2023-04-10T10:17:53;10.48;;;6.88;;
27558;SDS011;15002;52.028;5.670;2023-04-10T10:20:39;11.77;;;8.38;;
27558;SDS011;15002;52.028;5.670;2023-04-10T10:23:08;10.48;;;7.40;;
27558;SDS011;15002;52.028;5.670;2023-04-10T10:25:34;11.48;;;7.57;;
27558;SDS011;15002;52.028;5.670;2023-04-10T10:28:01;10.00;;;7.82;;
27558;SDS011;15002;52.028;5.670;2023-04-10T10:30:29;10.68;;;7.38;;
27558;SDS011;15002;52.028;5.670;2023-04-10T10:32:58;9.57;;;6.78;;
27558;SDS011;15002;52.028;5.670;2023-04-10T10:35:29;9.48;;;6.90;;
27558;SDS011;15002;52.028;5.670;2023-04-10T10:37:57;10.98;;;7.45;;
27558;SDS011;15002;52.028;5.670;2023-04-10T10:46:33;9.05;;;6.72;;
27558;SDS011;15002;52.028;5.670;2023-04-10T10:49:12;9.00;;;7.53;;
27558;SDS011;15002;52.028;5.670;2023-04-10T10:51:42;9.68;;;6.80;;
27558;SDS011;15002;52.028;5.670;2023-04-10T10:56:53;10.35;;;6.53;;
27558;SDS011;15002;52.028;5.670;2023-04-10T11:02:13;8.57;;;6.55;;
27558;SDS011;15002;52.028;5.670;2023-04-10T11:04:46;9.73;;;7.15;;
27558;SDS011;15002;52.028;5.670;2023-04-10T11:07:13;8.38;;;6.90;;
27558;SDS011;15002;52.028;5.670;2023-04-10T11:09:46;8.85;;;7.13;;
27558;SDS011;15002;52.028;5.670;2023-04-10T11:12:21;9.02;;;7.05;;
27558;SDS011;15002;52.028;5.670;2023-04-10T11:15:01;8.98;;;7.18;;
27558;SDS011;15002;52.028;5.670;2023-04-10T11:17:48;9.38;;;7.13;;
27558;SDS011;15002;52.028;5.670;2023-04-10T11:20:14;10.27;;;7.25;;
27558;SDS011;15002;52.028;5.670;2023-04-10T11:33:59;9.52;;;7.28;;
27558;SDS011;15002;52.028;5.670;2023-04-10T11:36:25;8.93;;;7.07;;
27558;SDS011;15002;52.028;5.670;2023-04-10T11:41:33;8.07;;;6.80;;
27558;SDS011;15002;52.028;5.670;2023-04-10T11:44:04;9.52;;;6.70;;
27558;SDS011;15002;52.028;5.670;2023-04-10T11:46:35;8.20;;;6.72;;
27558;SDS011;15002;52.028;5.670;2023-04-10T11:49:02;9.30;;;6.88;;
27558;SDS011;15002;52.028;5.670;2023-04-10T11:51:29;9.20;;;6.20;;
27558;SDS011;15002;52.028;5.670;2023-04-10T11:54:08;13.55;;;7.07;;
27558;SDS011;15002;52.028;5.670;2023-04-10T11:56:42;9.15;;;6.63;;
27558;SDS011;15002;52.028;5.670;2023-04-10T11:59:10;9.65;;;6.95;;
27558;SDS011;15002;52.028;5.670;2023-04-10T12:01:41;9.18;;;6.15;;
27558;SDS011;15002;52.028;5.670;2023-04-10T12:04:16;7.65;;;6.15;;
27558;SDS011;15002;52.028;5.670;2023-04-10T12:06:50;8.65;;;7.03;;
27558;SDS011;15002;52.028;5.670;2023-04-10T12:09:17;9.00;;;6.50;;
27558;SDS011;15002;52.028;5.670;2023-04-10T12:14:19;9.23;;;5.43;;
27558;SDS011;15002;52.028;5.670;2023-04-10T12:16:45;5.57;;;4.78;;
27558;SDS011;15002;52.028;5.670;2023-04-10T12:19:11;7.32;;;4.97;;
27558;SDS011;15002;52.028;5.670;2023-04-10T12:21:38;6.95;;;5.18;;
27558;SDS011;15002;52.028;5.670;2023-04-10T12:24:06;6.97;;;5.90;;
27558;SDS011;15002;52.028;5.670;2023-04-10T12:26:32;8.52;;;5.13;;
27558;SDS011;15002;52.028;5.670;2023-04-10T12:28:58;7.10;;;5.30;;
27558;SDS011;15002;52.028;5.670;2023-04-10T12:31:27;6.13;;;5.35;;
27558;SDS011;15002;52.028;5.670;2023-04-10T12:33:54;5.83;;;5.20;;
27558;SDS011;15002;52.028;5.670;2023-04-10T12:36:22;7.82;;;6.22;;
27558;SDS011;15002;52.028;5.670;2023-04-10T12:38:53;5.65;;;5.00;;
27558;SDS011;15002;52.028;5.670;2023-04-10T12:41:22;5.50;;;4.60;;
27558;SDS011;15002;52.028;5.670;2023-04-10T12:43:50;6.88;;;4.80;;
27558;SDS011;15002;52.028;5.670;2023-04-10T12:46:26;5.40;;;4.47;;
27558;SDS011;15002;52.028;5.670;2023-04-10T12:48:53;7.82;;;4.93;;
27558;SDS011;15002;52.028;5.670;2023-04-10T12:51:39;4.63;;;3.85;;
27558;SDS011;15002;52.028;5.670;2023-04-10T12:54:06;4.95;;;3.92;;
27558;SDS011;15002;52.028;5.670;2023-04-10T12:56:41;5.20;;;4.30;;
27558;SDS011;15002;52.028;5.670;2023-04-10T12:59:08;4.82;;;4.35;;
27558;SDS011;15002;52.028;5.670;2023-04-10T13:01:36;7.53;;;4.20;;
27558;SDS011;15002;52.028;5.670;2023-04-10T13:04:02;6.22;;;4.07;;
27558;SDS011;15002;52.028;5.670;2023-04-10T13:06:28;6.13;;;3.83;;
27558;SDS011;15002;52.028;5.670;2023-04-10T13:08:54;5.68;;;3.40;;
27558;SDS011;15002;52.028;5.670;2023-04-10T13:11:20;4.95;;;4.30;;
27558;SDS011;15002;52.028;5.670;2023-04-10T13:13:47;5.30;;;3.97;;
27558;SDS011;15002;52.028;5.670;2023-04-10T13:16:13;5.07;;;4.20;;
27558;SDS011;15002;52.028;5.670;2023-04-10T13:18:39;4.60;;;3.92;;
27558;SDS011;15002;52.028;5.670;2023-04-10T13:21:05;4.85;;;4.20;;
27558;SDS011;15002;52.028;5.670;2023-04-10T13:23:31;5.00;;;4.05;;
27558;SDS011;15002;52.028;5.670;2023-04-10T13:25:56;5.35;;;4.18;;
27558;SDS011;15002;52.028;5.670;2023-04-10T13:28:23;5.22;;;4.20;;
27558;SDS011;15002;52.028;5.670;2023-04-10T13:30:48;4.25;;;3.75;;
27558;SDS011;15002;52.028;5.670;2023-04-10T13:33:14;5.82;;;4.18;;
27558;SDS011;15002;52.028;5.670;2023-04-10T13:35:40;6.32;;;4.20;;
27558;SDS011;15002;52.028;5.670;2023-04-10T13:38:05;7.03;;;3.92;;
27558;SDS011;15002;52.028;5.670;2023-04-10T13:40:33;7.28;;;3.95;;
27558;SDS011;15002;52.028;5.670;2023-04-10T13:42:58;5.55;;;3.92;;
27558;SDS011;15002;52.028;5.670;2023-04-10T13:45:24;5.57;;;3.70;;
27558;SDS011;15002;52.028;5.670;2023-04-10T13:47:50;6.03;;;4.07;;
27558;SDS011;15002;52.028;5.670;2023-04-10T13:50:16;7.40;;;4.05;;
27558;SDS011;15002;52.028;5.670;2023-04-10T13:52:41;5.82;;;4.15;;
27558;SDS011;15002;52.028;5.670;2023-04-10T13:55:07;6.25;;;4.22;;
27558;SDS011;15002;52.028;5.670;2023-04-10T13:57:33;3.97;;;3.45;;
27558;SDS011;15002;52.028;5.670;2023-04-10T13:59:59;5.30;;;3.90;;
27558;SDS011;15002;52.028;5.670;2023-04-10T14:02:25;4.75;;;4.20;;
27558;SDS011;15002;52.028;5.670;2023-04-10T14:04:51;4.47;;;4.07;;
27558;SDS011;15002;52.028;5.670;2023-04-10T14:07:17;5.18;;;3.75;;
27558;SDS011;15002;52.028;5.670;2023-04-10T14:09:43;5.53;;;3.50;;
27558;SDS011;15002;52.028;5.670;2023-04-10T14:12:11;5.43;;;3.75;;
27558;SDS011;15002;52.028;5.670;2023-04-10T14:14:40;4.05;;;3.65;;
27558;SDS011;15002;52.028;5.670;2023-04-10T14:17:06;5.15;;;3.58;;
27558;SDS011;15002;52.028;5.670;2023-04-10T14:19:32;7.03;;;3.80;;
27558;SDS011;15002;52.028;5.670;2023-04-10T14:21:58;4.20;;;3.80;;
27558;SDS011;15002;52.028;5.670;2023-04-10T14:24:24;5.30;;;3.88;;
27558;SDS011;15002;52.028;5.670;2023-04-10T14:26:50;4.65;;;3.70;;
27558;SDS011;15002;52.028;5.670;2023-04-10T14:29:17;4.15;;;3.75;;
27558;SDS011;15002;52.028;5.670;2023-04-10T14:31:43;5.28;;;3.95;;
27558;SDS011;15002;52.028;5.670;2023-04-10T14:34:08;5.85;;;3.65;;
27558;SDS011;15002;52.028;5.670;2023-04-10T14:36:34;7.80;;;4.10;;
27558;SDS011;15002;52.028;5.670;2023-04-10T14:39:00;7.18;;;4.13;;
27558;SDS011;15002;52.028;5.670;2023-04-10T14:41:25;5.18;;;3.88;;
27558;SDS011;15002;52.028;5.670;2023-04-10T14:43:52;6.00;;;4.43;;
27558;SDS011;15002;52.028;5.670;2023-04-10T14:46:18;4.70;;;4.18;;
27558;SDS011;15002;52.028;5.670;2023-04-10T14:48:44;5.00;;;4.38;;
27558;SDS011;15002;52.028;5.670;2023-04-10T14:51:09;5.15;;;4.20;;
27558;SDS011;15002;52.028;5.670;2023-04-10T14:53:38;4.70;;;3.63;;
27558;SDS011;15002;52.028;5.670;2023-04-10T14:56:14;6.38;;;3.58;;
27558;SDS011;15002;52.028;5.670;2023-04-10T14:58:40;5.70;;;3.33;;
27558;SDS011;15002;52.028;5.670;2023-04-10T15:01:09;4.82;;;3.83;;
27558;SDS011;15002;52.028;5.670;2023-04-10T15:03:36;4.55;;;3.58;;
27558;SDS011;15002;52.028;5.670;2023-04-10T15:06:02;5.20;;;3.38;;
27558;SDS011;15002;52.028;5.670;2023-04-10T15:08:27;5.70;;;4.10;;
27558;SDS011;15002;52.028;5.670;2023-04-10T15:10:53;4.38;;;3.38;;
27558;SDS011;15002;52.028;5.670;2023-04-10T15:13:19;4.40;;;3.60;;
27558;SDS011;15002;52.028;5.670;2023-04-10T15:15:46;4.22;;;3.75;;
27558;SDS011;15002;52.028;5.670;2023-04-10T15:18:14;5.57;;;4.25;;
27558;SDS011;15002;52.028;5.670;2023-04-10T15:20:41;5.00;;;4.47;;
27558;SDS011;15002;52.028;5.670;2023-04-10T15:23:07;4.65;;;4.18;;
27558;SDS011;15002;52.028;5.670;2023-04-10T15:25:32;4.88;;;3.80;;